sensor_id;sensor_type;location;lat;lon;timestamp;pressure;altitude;pressure_sealevel;temperature;humidity
829;BME280;396;52.558;13.188;2024-02-15T00:00:29;101219.78;;;9.78;100.00
829;BME280;396;52.558;13.188;2024-02-15T00:02:55;101216.22;;;9.83;100.00
829;BME280;396;52.558;13.188;2024-02-15T00:05:24;101215.38;;;9.82;100.00
829;BME280;396;52.558;13.188;2024-02-15T00:07:51;101220.53;;;9.84;100.00
829;BME280;396;52.558;13.188;2024-02-15T00:10:17;101213.75;;;9.86;100.00
829;BME280;396;52.558;13.188;2024-02-15T00:12:46;101214.53;;;9.87;100.00
829;BME280;396;52.558;13.188;2024-02-15T00:15:15;101213.22;;;9.84;100.00
829;BME280;396;52.558;13.188;2024-02-15T00:17:42;101219.16;;;9.86;100.00
829;BME280;396;52.558;13.188;2024-02-15T00:20:09;101219.44;;;9.85;100.00
829;BME280;396;52.558;13.188;2024-02-15T00:22:38;101222.16;;;9.85;100.00
829;BME280;396;52.558;13.188;2024-02-15T00:25:06;101223.50;;;9.88;100.00
829;BME280;396;52.558;13.188;2024-02-15T00:27:34;101220.78;;;9.88;100.00
829;BME280;396;52.558;13.188;2024-02-15T00:30:00;101213.47;;;9.88;100.00
829;BME280;396;52.558;13.188;2024-02-15T00:32:27;101213.19;;;9.90;100.00
829;BME280;396;52.558;13.188;2024-02-15T00:34:54;101213.72;;;9.92;100.00
829;BME280;396;52.558;13.188;2024-02-15T00:37:20;101207.50;;;9.91;100.00
829;BME280;396;52.558;13.188;2024-02-15T00:39:48;101213.44;;;9.93;100.00
829;BME280;396;52.558;13.188;2024-02-15T00:42:15;101218.56;;;9.95;100.00
829;BME280;396;52.558;13.188;2024-02-15T00:44:41;101219.38;;;9.95;100.00
829;BME280;396;52.558;13.188;2024-02-15T00:47:09;101211.00;;;9.97;100.00
829;BME280;396;52.558;13.188;2024-02-15T00:49:36;101211.00;;;9.97;100.00
829;BME280;396;52.558;13.188;2024-02-15T00:52:03;101214.25;;;9.94;100.00
829;BME280;396;52.558;13.188;2024-02-15T00:54:30;101216.69;;;9.90;100.00
829;BME280;396;52.558;13.188;2024-02-15T00:56:58;101221.03;;;9.91;100.00
829;BME280;396;52.558;13.188;2024-02-15T00:59:25;101221.84;;;9.92;100.00
829;BME280;396;52.558;13.188;2024-02-15T01:01:51;101214.53;;;9.92;100.00
829;BME280;396;52.558;13.188;2024-02-15T01:04:18;101215.59;;;9.91;100.00
829;BME280;396;52.558;13.188;2024-02-15T01:06:45;101214.75;;;9.96;100.00
829;BME280;396;52.558;13.188;2024-02-15T01:09:12;101212.88;;;9.96;100.00
829;BME280;396;52.558;13.188;2024-02-15T01:11:39;101219.94;;;9.92;100.00
829;BME280;396;52.558;13.188;2024-02-15T01:14:07;101225.06;;;9.94;100.00
829;BME280;396;52.558;13.188;2024-02-15T01:16:35;101217.50;;;9.91;100.00
829;BME280;396;52.558;13.188;2024-02-15T01:19:02;101211.84;;;9.92;100.00
829;BME280;396;52.558;13.188;2024-02-15T01:21:30;101209.38;;;9.91;100.00
829;BME280;396;52.558;13.188;2024-02-15T01:23:58;101205.31;;;9.93;100.00
829;BME280;396;52.558;13.188;2024-02-15T01:26:25;101215.59;;;9.91;100.00
829;BME280;396;52.558;13.188;2024-02-15T01:28:52;101213.41;;;9.98;100.00
829;BME280;396;52.558;13.188;2024-02-15T01:31:21;101215.31;;;9.98;100.00
829;BME280;396;52.558;13.188;2024-02-15T01:33:48;101214.50;;;9.97;100.00
829;BME280;396;52.558;13.188;2024-02-15T01:36:15;101212.34;;;9.94;100.00
829;BME280;396;52.558;13.188;2024-02-15T01:38:42;101211.78;;;9.97;100.00
829;BME280;396;52.558;13.188;2024-02-15T01:41:08;101208.00;;;9.98;100.00
829;BME280;396;52.558;13.188;2024-02-15T01:43:35;101208.28;;;9.97;100.00
829;BME280;396;52.558;13.188;2024-02-15T01:46:07;101211.00;;;9.97;100.00
829;BME280;396;52.558;13.188;2024-02-15T01:48:36;101211.00;;;9.97;100.00
829;BME280;396;52.558;13.188;2024-02-15T01:51:03;101208.53;;;9.95;100.00
829;BME280;396;52.558;13.188;2024-02-15T01:53:31;101199.63;;;9.95;100.00
829;BME280;396;52.558;13.188;2024-02-15T01:55:58;101203.38;;;9.99;100.00
829;BME280;396;52.558;13.188;2024-02-15T01:58:26;101197.41;;;10.02;100.00
829;BME280;396;52.558;13.188;2024-02-15T02:00:54;101199.56;;;10.00;100.00
829;BME280;396;52.558;13.188;2024-02-15T02:03:22;101189.56;;;10.00;100.00
829;BME280;396;52.558;13.188;2024-02-15T02:05:50;101191.47;;;10.00;100.00
829;BME280;396;52.558;13.188;2024-02-15T02:08:17;101189.00;;;10.03;100.00
829;BME280;396;52.558;13.188;2024-02-15T02:10:44;101193.09;;;10.01;100.00
829;BME280;396;52.558;13.188;2024-02-15T02:13:11;101192.00;;;10.02;100.00
829;BME280;396;52.558;13.188;2024-02-15T02:15:38;101189.53;;;10.05;100.00
829;BME280;396;52.558;13.188;2024-02-15T02:18:05;101196.84;;;10.05;100.00
829;BME280;396;52.558;13.188;2024-02-15T02:20:33;101196.31;;;10.03;100.00
829;BME280;396;52.558;13.188;2024-02-15T02:23:06;101185.44;;;10.08;100.00
829;BME280;396;52.558;13.188;2024-02-15T02:25:35;101184.94;;;10.06;100.00
829;BME280;396;52.558;13.188;2024-02-15T02:28:02;101188.13;;;10.13;100.00
829;BME280;396;52.558;13.188;2024-02-15T02:30:28;101191.13;;;10.11;100.00
829;BME280;396;52.558;13.188;2024-02-15T02:32:55;101190.88;;;10.08;100.00
829;BME280;396;52.558;13.188;2024-02-15T02:35:24;101181.13;;;10.07;100.00
829;BME280;396;52.558;13.188;2024-02-15T02:37:52;101183.84;;;10.07;100.00
829;BME280;396;52.558;13.188;2024-02-15T02:40:19;101187.09;;;10.04;100.00
829;BME280;396;52.558;13.188;2024-02-15T02:42:49;101200.59;;;10.09;100.00
829;BME280;396;52.558;13.188;2024-02-15T02:45:17;101189.22;;;10.12;100.00
829;BME280;396;52.558;13.188;2024-02-15T02:47:45;101184.59;;;10.13;100.00
829;BME280;396;52.558;13.188;2024-02-15T02:50:12;101188.09;;;10.18;100.00
829;BME280;396;52.558;13.188;2024-02-15T02:52:39;101184.56;;;10.18;100.00
829;BME280;396;52.558;13.188;2024-02-15T02:55:06;101185.66;;;10.17;100.00
829;BME280;396;52.558;13.188;2024-02-15T02:57:34;101189.97;;;10.18;100.00
829;BME280;396;52.558;13.188;2024-02-15T03:00:05;101197.03;;;10.19;100.00
829;BME280;396;52.558;13.188;2024-02-15T03:02:34;101188.13;;;10.13;100.00
829;BME280;396;52.558;13.188;2024-02-15T03:05:02;101194.31;;;10.14;100.00
829;BME280;396;52.558;13.188;2024-02-15T03:07:32;101189.47;;;10.16;100.00
829;BME280;396;52.558;13.188;2024-02-15T03:09:59;101188.91;;;10.14;100.00
829;BME280;396;52.558;13.188;2024-02-15T03:12:25;101190.88;;;10.08;100.00
829;BME280;396;52.558;13.188;2024-02-15T03:14:55;101188.69;;;10.10;100.00
829;BME280;396;52.558;13.188;2024-02-15T03:17:23;101195.97;;;10.15;100.00
829;BME280;396;52.558;13.188;2024-02-15T03:19:51;101194.31;;;10.14;100.00
829;BME280;396;52.558;13.188;2024-02-15T03:22:17;101185.69;;;10.11;100.00
829;BME280;396;52.558;13.188;2024-02-15T03:24:44;101190.56;;;10.15;100.00
829;BME280;396;52.558;13.188;2024-02-15T03:27:11;101191.38;;;10.15;100.00
829;BME280;396;52.558;13.188;2024-02-15T03:29:37;101194.06;;;10.15;100.00
829;BME280;396;52.558;13.188;2024-02-15T03:32:05;101189.50;;;10.10;100.00
829;BME280;396;52.558;13.188;2024-02-15T03:34:33;101191.91;;;10.12;100.00
829;BME280;396;52.558;13.188;2024-02-15T03:37:00;101191.38;;;10.15;100.00
829;BME280;396;52.558;13.188;2024-02-15T03:39:29;101198.38;;;10.16;100.00
829;BME280;396;52.558;13.188;2024-02-15T03:41:55;101191.88;;;10.17;100.00
829;BME280;396;52.558;13.188;2024-02-15T03:44:24;101196.22;;;10.18;100.00
829;BME280;396;52.558;13.188;2024-02-15T03:46:51;101193.47;;;10.23;100.00
829;BME280;396;52.558;13.188;2024-02-15T03:49:18;101186.47;;;10.17;100.00
829;BME280;396;52.558;13.188;2024-02-15T03:51:47;101195.94;;;10.20;100.00
829;BME280;396;52.558;13.188;2024-02-15T03:54:14;101198.38;;;10.16;100.00
829;BME280;396;52.558;13.188;2024-02-15T03:56:46;101189.97;;;10.18;100.00
829;BME280;396;52.558;13.188;2024-02-15T03:59:18;101192.69;;;10.18;100.00
829;BME280;396;52.558;13.188;2024-02-15T04:01:47;101194.81;;;10.21;100.00
829;BME280;396;52.558;13.188;2024-02-15T04:04:14;101191.59;;;10.19;100.00
829;BME280;396;52.558;13.188;2024-02-15T04:06:40;101194.31;;;10.19;100.00
829;BME280;396;52.558;13.188;2024-02-15T04:09:09;101193.47;;;10.23;100.00
829;BME280;396;52.558;13.188;2024-02-15T04:11:36;101193.53;;;10.13;100.00
829;BME280;396;52.558;13.188;2024-02-15T04:14:04;101196.78;;;10.15;100.00
829;BME280;396;52.558;13.188;2024-02-15T04:16:30;101190.59;;;10.09;100.00
829;BME280;396;52.558;13.188;2024-02-15T04:18:58;101198.94;;;10.13;100.00
829;BME280;396;52.558;13.188;2024-02-15T04:21:25;101200.25;;;10.21;100.00
829;BME280;396;52.558;13.188;2024-02-15T04:23:52;101192.91;;;10.21;100.00
829;BME280;396;52.558;13.188;2024-02-15T04:26:21;101199.69;;;10.24;100.00
829;BME280;396;52.558;13.188;2024-02-15T04:28:52;101195.91;;;10.25;100.00
829;BME280;396;52.558;13.188;2024-02-15T04:31:19;101193.72;;;10.27;100.00
829;BME280;396;52.558;13.188;2024-02-15T04:33:47;101196.97;;;10.29;100.00
829;BME280;396;52.558;13.188;2024-02-15T04:36:14;101191.25;;;10.30;100.00
829;BME280;396;52.558;13.188;2024-02-15T04:38:48;101196.09;;;10.33;100.00
829;BME280;396;52.558;13.188;2024-02-15T04:41:15;101196.41;;;10.32;100.00
829;BME280;396;52.558;13.188;2024-02-15T04:43:46;101195.31;;;10.33;100.00
829;BME280;396;52.558;13.188;2024-02-15T04:46:12;101190.19;;;10.31;100.00
829;BME280;396;52.558;13.188;2024-02-15T04:48:39;101197.22;;;10.32;100.00
829;BME280;396;52.558;13.188;2024-02-15T04:51:07;101193.69;;;10.32;100.00
829;BME280;396;52.558;13.188;2024-02-15T04:53:33;101200.72;;;10.33;100.00
829;BME280;396;52.558;13.188;2024-02-15T04:56:01;101196.63;;;10.35;100.00
829;BME280;396;52.558;13.188;2024-02-15T04:58:35;101197.72;;;10.34;100.00
829;BME280;396;52.558;13.188;2024-02-15T05:01:04;101193.44;;;10.28;100.00
829;BME280;396;52.558;13.188;2024-02-15T05:03:32;101197.47;;;10.31;100.00
829;BME280;396;52.558;13.188;2024-02-15T05:06:00;101204.53;;;10.32;100.00
829;BME280;396;52.558;13.188;2024-02-15T05:08:26;101200.44;;;10.34;100.00
829;BME280;396;52.558;13.188;2024-02-15T05:10:57;101201.22;;;10.35;100.00
829;BME280;396;52.558;13.188;2024-02-15T05:13:24;101195.56;;;10.37;100.00
829;BME280;396;52.558;13.188;2024-02-15T05:15:51;101196.97;;;10.29;100.00
829;BME280;396;52.558;13.188;2024-02-15T05:18:19;101201.56;;;10.28;100.00
829;BME280;396;52.558;13.188;2024-02-15T05:20:45;101203.19;;;10.29;100.00
829;BME280;396;52.558;13.188;2024-02-15T05:23:12;101199.13;;;10.27;100.00
829;BME280;396;52.558;13.188;2024-02-15T05:25:40;101205.38;;;10.27;100.00
829;BME280;396;52.558;13.188;2024-02-15T05:28:06;101204.53;;;10.27;100.00
829;BME280;396;52.558;13.188;2024-02-15T05:30:34;101209.41;;;10.30;100.00
829;BME280;396;52.558;13.188;2024-02-15T05:33:03;101203.72;;;10.31;100.00
829;BME280;396;52.558;13.188;2024-02-15T05:35:31;101206.13;;;10.33;100.00
829;BME280;396;52.558;13.188;2024-02-15T05:37:58;101206.66;;;10.35;100.00
829;BME280;396;52.558;13.188;2024-02-15T05:40:24;101211.00;;;10.36;100.00
829;BME280;396;52.558;13.188;2024-02-15T05:42:55;101208.00;;;10.38;100.00
829;BME280;396;52.558;13.188;2024-02-15T05:45:30;101202.28;;;10.39;100.00
829;BME280;396;52.558;13.188;2024-02-15T05:47:59;101213.34;;;10.43;100.00
829;BME280;396;52.558;13.188;2024-02-15T05:50:26;101213.34;;;10.43;100.00
829;BME280;396;52.558;13.188;2024-02-15T05:52:56;101206.56;;;10.45;100.00
829;BME280;396;52.558;13.188;2024-02-15T05:55:24;101205.47;;;10.46;100.00
829;BME280;396;52.558;13.188;2024-02-15T05:57:52;101212.78;;;10.46;100.00
829;BME280;396;52.558;13.188;2024-02-15T06:00:19;101204.38;;;10.47;100.00
829;BME280;396;52.558;13.188;2024-02-15T06:02:45;101210.59;;;10.48;100.00
829;BME280;396;52.558;13.188;2024-02-15T06:05:12;101207.38;;;10.46;100.00
829;BME280;396;52.558;13.188;2024-02-15T06:07:42;101206.56;;;10.45;100.00
829;BME280;396;52.558;13.188;2024-02-15T06:10:10;101205.19;;;10.48;100.00
829;BME280;396;52.558;13.188;2024-02-15T06:12:37;101206.53;;;10.50;100.00
829;BME280;396;52.558;13.188;2024-02-15T06:15:04;101206.00;;;10.48;100.00
829;BME280;396;52.558;13.188;2024-02-15T06:17:39;101206.78;;;10.49;100.00
829;BME280;396;52.558;13.188;2024-02-15T06:20:06;101210.03;;;10.51;100.00
829;BME280;396;52.558;13.188;2024-02-15T06:22:33;101211.94;;;10.50;100.00
829;BME280;396;52.558;13.188;2024-02-15T06:25:00;101213.84;;;10.50;100.00
829;BME280;396;52.558;13.188;2024-02-15T06:27:28;101208.44;;;10.50;100.00
829;BME280;396;52.558;13.188;2024-02-15T06:29:56;101218.22;;;10.46;100.00
829;BME280;396;52.558;13.188;2024-02-15T06:32:39;101217.38;;;10.50;100.00
829;BME280;396;52.558;13.188;2024-02-15T06:35:23;101219.47;;;10.53;100.00
829;BME280;396;52.558;13.188;2024-02-15T06:38:07;101220.31;;;10.54;100.00
829;BME280;396;52.558;13.188;2024-02-15T06:40:51;101225.69;;;10.59;100.00
829;BME280;396;52.558;13.188;2024-02-15T06:43:20;101227.28;;;10.60;100.00
829;BME280;396;52.558;13.188;2024-02-15T06:45:47;101231.59;;;10.61;100.00
829;BME280;396;52.558;13.188;2024-02-15T06:48:16;101228.91;;;10.61;100.00
829;BME280;396;52.558;13.188;2024-02-15T06:50:43;101234.31;;;10.61;100.00
829;BME280;396;52.558;13.188;2024-02-15T06:53:09;101227.81;;;10.62;100.00
829;BME280;396;52.558;13.188;2024-02-15T06:55:37;101246.50;;;10.64;100.00
829;BME280;396;52.558;13.188;2024-02-15T06:58:05;101248.63;;;10.67;100.00
829;BME280;396;52.558;13.188;2024-02-15T07:00:33;101242.34;;;10.71;100.00
829;BME280;396;52.558;13.188;2024-02-15T07:02:59;101247.53;;;10.68;100.00
829;BME280;396;52.558;13.188;2024-02-15T07:05:26;101245.34;;;10.70;100.00
829;BME280;396;52.558;13.188;2024-02-15T07:07:53;101251.81;;;10.74;100.00
829;BME280;396;52.558;13.188;2024-02-15T07:10:20;101258.84;;;10.75;100.00
829;BME280;396;52.558;13.188;2024-02-15T07:12:47;101248.00;;;10.75;100.00
829;BME280;396;52.558;13.188;2024-02-15T07:15:15;101249.63;;;10.76;100.00
829;BME280;396;52.558;13.188;2024-02-15T07:17:43;101248.59;;;10.72;100.00
829;BME280;396;52.558;13.188;2024-02-15T07:20:11;101254.75;;;10.77;100.00
829;BME280;396;52.558;13.188;2024-02-15T07:22:42;101246.38;;;10.74;100.00
829;BME280;396;52.558;13.188;2024-02-15T07:25:10;101242.81;;;10.78;100.00
829;BME280;396;52.558;13.188;2024-02-15T07:27:37;101238.50;;;10.77;100.00
829;BME280;396;52.558;13.188;2024-02-15T07:30:04;101244.69;;;10.83;100.00
829;BME280;396;52.558;13.188;2024-02-15T07:32:34;101245.16;;;10.90;100.00
829;BME280;396;52.558;13.188;2024-02-15T07:35:02;101247.56;;;10.92;100.00
829;BME280;396;52.558;13.188;2024-02-15T07:37:30;101242.38;;;10.95;100.00
829;BME280;396;52.558;13.188;2024-02-15T07:39:58;101242.38;;;10.95;100.00
829;BME280;396;52.558;13.188;2024-02-15T07:42:24;101246.66;;;11.01;100.00
829;BME280;396;52.558;13.188;2024-02-15T07:44:51;101250.69;;;11.04;100.00
829;BME280;396;52.558;13.188;2024-02-15T07:47:18;101246.59;;;11.06;100.00
829;BME280;396;52.558;13.188;2024-02-15T07:49:49;101241.13;;;11.11;100.00
829;BME280;396;52.558;13.188;2024-02-15T07:52:17;101242.22;;;11.10;100.00
829;BME280;396;52.558;13.188;2024-02-15T07:54:44;101242.44;;;11.14;100.00
829;BME280;396;52.558;13.188;2024-02-15T07:57:11;101248.63;;;11.20;100.00
829;BME280;396;52.558;13.188;2024-02-15T07:59:39;101254.81;;;11.25;100.00
829;BME280;396;52.558;13.188;2024-02-15T08:02:06;101253.72;;;11.26;100.00
829;BME280;396;52.558;13.188;2024-02-15T08:04:32;101253.13;;;11.29;100.00
829;BME280;396;52.558;13.188;2024-02-15T08:07:05;101250.13;;;11.31;100.00
829;BME280;396;52.558;13.188;2024-02-15T08:09:37;101254.75;;;11.30;100.00
829;BME280;396;52.558;13.188;2024-02-15T08:12:04;101262.81;;;11.35;100.00
829;BME280;396;52.558;13.188;2024-02-15T08:14:31;101253.81;;;11.40;100.00
829;BME280;396;52.558;13.188;2024-02-15T08:16:57;101257.41;;;11.35;100.00
829;BME280;396;52.558;13.188;2024-02-15T08:19:24;101254.63;;;11.41;100.00
829;BME280;396;52.558;13.188;2024-02-15T08:21:54;101261.88;;;11.45;100.00
829;BME280;396;52.558;13.188;2024-02-15T08:24:21;101264.66;;;11.40;100.00
829;BME280;396;52.558;13.188;2024-02-15T08:26:49;101269.50;;;11.43;100.00
829;BME280;396;52.558;13.188;2024-02-15T08:29:17;101261.06;;;11.45;100.00
829;BME280;396;52.558;13.188;2024-02-15T08:31:45;101270.03;;;11.45;100.00
829;BME280;396;52.558;13.188;2024-02-15T08:34:12;101261.63;;;11.47;100.00
829;BME280;396;52.558;13.188;2024-02-15T08:36:40;101257.25;;;11.46;100.00
829;BME280;396;52.558;13.188;2024-02-15T08:39:06;101255.66;;;11.45;100.00
829;BME280;396;52.558;13.188;2024-02-15T08:41:37;101252.88;;;11.50;100.00
829;BME280;396;52.558;13.188;2024-02-15T08:44:05;101253.09;;;11.53;100.00
829;BME280;396;52.558;13.188;2024-02-15T08:46:36;101257.66;;;11.58;100.00
829;BME280;396;52.558;13.188;2024-02-15T08:49:03;101256.22;;;11.66;100.00
829;BME280;396;52.558;13.188;2024-02-15T08:51:30;101252.63;;;11.70;100.00
829;BME280;396;52.558;13.188;2024-02-15T08:53:57;101249.84;;;11.75;100.00
829;BME280;396;52.558;13.188;2024-02-15T08:56:25;101259.31;;;11.78;100.00
829;BME280;396;52.558;13.188;2024-02-15T08:58:51;101251.94;;;11.83;100.00
829;BME280;396;52.558;13.188;2024-02-15T09:01:19;101254.25;;;11.90;100.00
829;BME280;396;52.558;13.188;2024-02-15T09:03:46;101251.78;;;11.94;100.00
829;BME280;396;52.558;13.188;2024-02-15T09:06:13;101262.06;;;11.97;100.00
829;BME280;396;52.558;13.188;2024-02-15T09:08:40;101251.69;;;11.99;100.00
829;BME280;396;52.558;13.188;2024-02-15T09:11:07;101272.84;;;12.02;100.00
829;BME280;396;52.558;13.188;2024-02-15T09:13:37;101265.50;;;12.02;100.00
829;BME280;396;52.558;13.188;2024-02-15T09:16:04;101263.09;;;12.01;100.00
829;BME280;396;52.558;13.188;2024-02-15T09:18:32;101268.78;;;11.99;100.00
829;BME280;396;52.558;13.188;2024-02-15T09:20:59;101269.63;;;12.00;100.00
829;BME280;396;52.558;13.188;2024-02-15T09:23:26;101267.72;;;12.00;100.00
829;BME280;396;52.558;13.188;2024-02-15T09:25:53;101263.88;;;12.01;100.00
829;BME280;396;52.558;13.188;2024-02-15T09:28:19;101269.53;;;12.05;100.00
829;BME280;396;52.558;13.188;2024-02-15T09:30:48;101273.66;;;12.02;100.00
829;BME280;396;52.558;13.188;2024-02-15T09:33:17;101268.50;;;12.01;100.00
829;BME280;396;52.558;13.188;2024-02-15T09:35:45;101267.50;;;11.97;100.00
829;BME280;396;52.558;13.188;2024-02-15T09:38:12;101277.47;;;12.01;100.00
829;BME280;396;52.558;13.188;2024-02-15T09:40:42;101274.66;;;12.06;100.00
829;BME280;396;52.558;13.188;2024-02-15T09:43:09;101281.34;;;12.14;100.00
829;BME280;396;52.558;13.188;2024-02-15T09:45:38;101279.88;;;12.22;100.00
829;BME280;396;52.558;13.188;2024-02-15T09:48:06;101272.97;;;12.29;100.00
829;BME280;396;52.558;13.188;2024-02-15T09:50:34;101271.94;;;12.44;100.00
829;BME280;396;52.558;13.188;2024-02-15T09:53:03;101282.03;;;12.57;100.00
829;BME280;396;52.558;13.188;2024-02-15T09:55:34;101284.91;;;12.66;100.00
829;BME280;396;52.558;13.188;2024-02-15T09:58:01;101281.28;;;12.71;100.00
829;BME280;396;52.558;13.188;2024-02-15T10:00:30;101288.22;;;12.77;100.00
829;BME280;396;52.558;13.188;2024-02-15T10:02:57;101284.94;;;12.80;100.00
829;BME280;396;52.558;13.188;2024-02-15T10:05:26;101288.44;;;12.80;100.00
829;BME280;396;52.558;13.188;2024-02-15T10:07:53;101287.44;;;12.76;100.00
829;BME280;396;52.558;13.188;2024-02-15T10:10:22;101280.88;;;12.77;100.00
829;BME280;396;52.558;13.188;2024-02-15T10:12:52;101282.13;;;12.85;100.00
829;BME280;396;52.558;13.188;2024-02-15T10:15:31;101278.50;;;12.90;100.00
829;BME280;396;52.558;13.188;2024-02-15T10:17:59;101284.16;;;12.93;100.00
829;BME280;396;52.558;13.188;2024-02-15T10:20:26;101296.03;;;12.97;100.00
829;BME280;396;52.558;13.188;2024-02-15T10:22:53;101295.53;;;13.09;100.00
829;BME280;396;52.558;13.188;2024-02-15T10:25:36;101289.06;;;13.24;100.00
829;BME280;396;52.558;13.188;2024-02-15T10:28:03;101286.03;;;13.25;100.00
829;BME280;396;52.558;13.188;2024-02-15T10:30:33;101290.34;;;13.26;100.00
829;BME280;396;52.558;13.188;2024-02-15T10:33:00;101284.69;;;13.23;100.00
829;BME280;396;52.558;13.188;2024-02-15T10:35:27;101278.34;;;13.27;100.00
829;BME280;396;52.558;13.188;2024-02-15T10:38:06;101280.47;;;13.30;100.00
829;BME280;396;52.558;13.188;2024-02-15T10:40:36;101285.22;;;13.38;100.00
829;BME280;396;52.558;13.188;2024-02-15T10:43:04;101280.16;;;13.46;100.00
829;BME280;396;52.558;13.188;2024-02-15T10:45:32;101278.28;;;13.46;100.00
829;BME280;396;52.558;13.188;2024-02-15T10:47:59;101294.50;;;13.51;100.00
829;BME280;396;52.558;13.188;2024-02-15T10:50:26;101286.53;;;13.55;100.00
829;BME280;396;52.558;13.188;2024-02-15T10:52:55;101277.66;;;13.49;100.00
829;BME280;396;52.558;13.188;2024-02-15T10:55:29;101285.00;;;13.49;100.00
829;BME280;396;52.558;13.188;2024-02-15T10:58:06;101287.44;;;13.50;100.00
829;BME280;396;52.558;13.188;2024-02-15T11:00:33;101284.22;;;13.48;100.00
829;BME280;396;52.558;13.188;2024-02-15T11:03:03;101282.59;;;13.47;100.00
829;BME280;396;52.558;13.188;2024-02-15T11:05:32;101272.84;;;13.46;100.00
829;BME280;396;52.558;13.188;2024-02-15T11:08:02;101277.53;;;13.54;100.00
829;BME280;396;52.558;13.188;2024-02-15T11:10:30;101279.16;;;13.69;100.00
829;BME280;396;52.558;13.188;2024-02-15T11:12:58;101276.00;;;13.76;100.00
829;BME280;396;52.558;13.188;2024-02-15T11:15:44;101273.28;;;13.76;100.00
829;BME280;396;52.558;13.188;2024-02-15T11:18:44;101267.16;;;13.70;100.00
829;BME280;396;52.558;13.188;2024-02-15T11:21:15;101262.63;;;13.66;100.00
829;BME280;396;52.558;13.188;2024-02-15T11:23:42;101259.56;;;13.67;100.00
829;BME280;396;52.558;13.188;2024-02-15T11:26:10;101273.06;;;13.72;100.00
829;BME280;396;52.558;13.188;2024-02-15T11:28:57;101263.03;;;13.73;100.00
829;BME280;396;52.558;13.188;2024-02-15T11:31:55;101271.59;;;13.66;100.00
829;BME280;396;52.558;13.188;2024-02-15T11:34:51;101278.75;;;13.62;100.00
829;BME280;396;52.558;13.188;2024-02-15T11:37:56;101271.00;;;13.55;100.00
829;BME280;396;52.558;13.188;2024-02-15T11:41:04;101271.13;;;13.50;100.00
829;BME280;396;52.558;13.188;2024-02-15T11:43:46;101267.56;;;13.50;100.00
829;BME280;396;52.558;13.188;2024-02-15T11:46:15;101269.59;;;13.44;100.00
829;BME280;396;52.558;13.188;2024-02-15T11:48:45;101272.00;;;13.46;100.00
829;BME280;396;52.558;13.188;2024-02-15T11:51:25;101270.72;;;13.43;100.00
829;BME280;396;52.558;13.188;2024-02-15T11:54:07;101266.19;;;13.38;100.00
829;BME280;396;52.558;13.188;2024-02-15T11:56:50;101266.19;;;13.38;100.00
829;BME280;396;52.558;13.188;2024-02-15T11:59:19;101259.13;;;13.37;100.00
829;BME280;396;52.558;13.188;2024-02-15T12:01:57;101246.31;;;13.38;100.00
829;BME280;396;52.558;13.188;2024-02-15T12:04:43;101248.31;;;13.32;100.00
829;BME280;396;52.558;13.188;2024-02-15T12:07:27;101247.22;;;13.33;100.00
829;BME280;396;52.558;13.188;2024-02-15T12:10:16;101245.00;;;13.35;100.00
829;BME280;396;52.558;13.188;2024-02-15T12:13:00;101237.44;;;13.32;100.00
829;BME280;396;52.558;13.188;2024-02-15T12:15:56;101243.41;;;13.34;100.00
829;BME280;396;52.558;13.188;2024-02-15T12:18:40;101231.41;;;13.35;100.00
829;BME280;396;52.558;13.188;2024-02-15T12:21:12;101242.38;;;13.30;100.00
829;BME280;396;52.558;13.188;2024-02-15T12:23:39;101231.13;;;13.37;100.00
829;BME280;396;52.558;13.188;2024-02-15T12:26:06;101242.69;;;13.43;100.00
829;BME280;396;52.558;13.188;2024-02-15T12:28:34;101245.78;;;13.50;100.00
829;BME280;396;52.558;13.188;2024-02-15T12:31:01;101235.91;;;13.54;100.00
829;BME280;396;52.558;13.188;2024-02-15T12:33:31;101232.78;;;13.60;100.00
829;BME280;396;52.558;13.188;2024-02-15T12:36:03;101234.38;;;13.61;100.00
829;BME280;396;52.558;13.188;2024-02-15T12:38:33;101228.03;;;13.66;100.00
829;BME280;396;52.558;13.188;2024-02-15T12:41:03;101226.19;;;13.75;100.00
829;BME280;396;52.558;13.188;2024-02-15T12:43:29;101219.22;;;13.83;100.00
829;BME280;396;52.558;13.188;2024-02-15T12:45:56;101226.94;;;13.89;100.00
829;BME280;396;52.558;13.188;2024-02-15T12:48:23;101227.66;;;13.95;100.00
829;BME280;396;52.558;13.188;2024-02-15T12:50:49;101224.00;;;14.00;100.00
829;BME280;396;52.558;13.188;2024-02-15T12:53:21;101225.00;;;14.04;100.00
829;BME280;396;52.558;13.188;2024-02-15T12:55:53;101223.38;;;14.03;100.00
829;BME280;396;52.558;13.188;2024-02-15T12:58:21;101213.13;;;14.00;100.00
829;BME280;396;52.558;13.188;2024-02-15T13:00:50;101215.72;;;14.05;100.00
829;BME280;396;52.558;13.188;2024-02-15T13:03:16;101219.91;;;14.11;100.00
829;BME280;396;52.558;13.188;2024-02-15T13:05:43;101213.88;;;14.14;100.00
829;BME280;396;52.558;13.188;2024-02-15T13:08:10;101211.81;;;14.20;100.00
829;BME280;396;52.558;13.188;2024-02-15T13:10:38;101214.25;;;14.21;100.00
829;BME280;396;52.558;13.188;2024-02-15T13:13:07;101224.03;;;14.22;100.00
829;BME280;396;52.558;13.188;2024-02-15T13:15:34;101213.13;;;14.22;100.00
829;BME280;396;52.558;13.188;2024-02-15T13:18:03;101217.63;;;14.27;100.00
829;BME280;396;52.558;13.188;2024-02-15T13:20:30;101212.19;;;14.27;100.00
829;BME280;396;52.558;13.188;2024-02-15T13:23:00;101211.38;;;14.26;100.00